Flight Track Log - Related Links

Times and Time Zones

All times are in EDT time to prevent confusion due to time zone crossing. See the DCM6650 flight status page for this flight to view local times or setup timezone preferences in your user account.


Time Position Orientation Groundspeed Altitude Reporting Facility
EDT Latitude Longitude Course Direction KTS MPH feet Rate Location/Type
Fri 04:00:40 PM 38.7833 -90.4167 295° West 177 204 2,600  Level Gateway (St. Louis) TRACON
Fri 04:01:31 PM 38.7981 -90.4567 295° West 189 217 4,100 1,912 Climbing Kansas City Center
Fri 04:02:33 PM 38.7694 -90.5131 237° Southwest 215 247 6,200 1,887 Climbing Kansas City Center
Fri 04:03:35 PM 38.7197 -90.4692 145° Southeast 242 278 8,000 919 Climbing Kansas City Center
Fri 04:04:37 PM 38.6728 -90.3719 122° Southeast 289 333 8,100 968 Climbing Kansas City Center
Fri 04:05:39 PM 38.6247 -90.2981 130° Southeast 277 319 10,000 1,887 Climbing Kansas City Center
Fri 04:06:41 PM 38.5769 -90.2247 130° Southeast 274 315 12,000 2,129 Climbing Kansas City Center
Fri 04:07:43 PM 38.5197 -90.1378 130° Southeast 270 311 14,400 1,597 Climbing Kansas City Center
Fri 04:08:45 PM 38.4681 -90.0600 130° Southeast 273 314 15,300 1,452 Climbing Kansas City Center
Fri 04:09:47 PM 38.4133 -89.9733 129° Southeast 299 344 17,400 1,935 Climbing Kansas City Center
Fri 04:10:49 PM 38.3667 -89.9028 130° Southeast 289 333 19,300 1,694 Climbing Kansas City Center
Fri 04:11:51 PM 38.3167 -89.8283 131° Southeast 280 322 20,900 1,500 Climbing Kansas City Center
Fri 04:12:53 PM 38.2667 -89.7508 129° Southeast 281 323 22,400 1,452 Climbing Kansas City Center
Fri 04:13:55 PM 38.2028 -89.6553 130° Southeast 291 335 23,900 1,306 Climbing Kansas City Center
Fri 04:14:57 PM 38.1467 -89.5719 131° Southeast 307 353 25,100 1,152 Climbing Kansas City Center
Fri 04:16:00 PM 38.0886 -89.4853 130° Southeast 320 368 26,300 1,152 Climbing Kansas City Center
Fri 04:17:02 PM 38.0300 -89.3969 130° Southeast 325 374 27,500 1,065 Climbing Kansas City Center
Fri 04:18:04 PM 37.9700 -89.3058 130° Southeast 334 384 28,500 968 Climbing Kansas City Center
Fri 04:19:06 PM 37.9081 -89.2144 131° Southeast 338 389 29,500 1,065 Climbing Kansas City Center
Fri 04:20:08 PM 37.8325 -89.1039 131° Southeast 345 397 30,700 1,016 Climbing Kansas City Center
Fri 04:21:10 PM 37.7764 -89.0183 130° Southeast 347 399 31,600 1,016 Climbing Kansas City Center
Fri 04:22:12 PM 37.6994 -88.9056 131° Southeast 349 402 32,800 968 Climbing Kansas City Center
Fri 04:23:14 PM 37.6358 -88.8122 131° Southeast 349 402 33,600 703 Climbing Kansas City Center
Fri 04:24:03 PM 37.5839 -88.7392 132° Southeast 352 405 34,100 643 Climbing Memphis Center
Fri 04:25:06 PM 37.5175 -88.6414 131° Southeast 360 414 34,800 432 Climbing Memphis Center
Fri 04:26:08 PM 37.4503 -88.5433 131° Southeast 364 419 35,000 97 Climbing Memphis Center
Fri 04:27:10 PM 37.3781 -88.4381 131° Southeast 387 445 35,000  Level Memphis Center
Fri 04:28:12 PM 37.3033 -88.3297 131° Southeast 402 463 35,000  Level Memphis Center
Fri 04:29:14 PM 37.2114 -88.1969 131° Southeast 414 476 35,000  Level Memphis Center
Fri 04:30:16 PM 37.1425 -88.0978 131° Southeast 416 479 35,000  Level Memphis Center
Fri 04:31:18 PM 37.0517 -87.9681 131° Southeast 418 481 35,000  Level Memphis Center
Fri 04:32:20 PM 36.9733 -87.8558 131° Southeast 421 484 35,000  Level Memphis Center
Fri 04:33:22 PM 36.8939 -87.7436 131° Southeast 422 486 35,000  Level Memphis Center
Fri 04:34:24 PM 36.8164 -87.6331 131° Southeast 422 486 35,000  Level Memphis Center
Fri 04:35:27 PM 36.7372 -87.5203 131° Southeast 423 487 35,000  Level Memphis Center
Fri 04:36:29 PM 36.6583 -87.4100 132° Southeast 423 487 35,000  Level Memphis Center
Fri 04:37:31 PM 36.5706 -87.3167 139° Southeast 418 481 35,000  Level Memphis Center
Fri 04:38:33 PM 36.4492 -87.2544 158° South 406 467 35,000  Level Memphis Center
Fri 04:39:35 PM 36.3450 -87.1986 157° South 405 466 35,000  Level Memphis Center
Fri 04:40:37 PM 36.2422 -87.1453 157° South 405 466 35,000  Level Memphis Center
Fri 04:41:39 PM 36.1392 -87.0925 158° South 405 466 35,000  Level Memphis Center
Fri 04:42:41 PM 36.0361 -87.0383 157° South 404 465 35,000  Level Memphis Center
Fri 04:43:43 PM 35.9164 -86.9758 157° South 403 464 35,000  Level Memphis Center
Fri 04:44:45 PM 35.8139 -86.9228 157° South 400 460 35,000  Level Memphis Center
Fri 04:45:48 PM 35.7117 -86.8700 157° South 400 460 35,000  Level Memphis Center
Fri 04:46:50 PM 35.6092 -86.8161 157° South 399 459 35,000  Level Memphis Center
Fri 04:47:52 PM 35.5058 -86.7639 158° South 399 459 35,000  Level Memphis Center
Fri 04:48:54 PM 35.4031 -86.7108 157° South 399 459 35,000  Level Memphis Center
Fri 04:49:56 PM 35.3011 -86.6589 157° South 397 457 35,000  Level Memphis Center
Fri 04:50:58 PM 35.1819 -86.5964 157° South 397 457 35,000  Level Memphis Center
Fri 04:52:00 PM 35.0883 -86.5503 158° South 396 456 35,000  Level Memphis Center
Fri 04:53:02 PM 34.9864 -86.4978 157° South 396 456 35,000  Level Memphis Center
Fri 04:54:04 PM 34.8847 -86.4461 157° South 396 456 35,000  Level Memphis Center
Fri 04:55:06 PM 34.7633 -86.3850 158° South 395 455 35,000  Level Memphis Center
Fri 04:56:08 PM 34.6619 -86.3344 158° South 395 455 35,000  Level Memphis Center
Fri 04:57:10 PM 34.5608 -86.2836 158° South 395 455 35,000  Level Memphis Center
Fri 04:58:13 PM 34.4592 -86.2328 158° South 395 455 35,000  Level Memphis Center
Fri 04:59:29 PM 34.3331 -86.1694 157° South 393 452 35,000  Level Atlanta Center
Fri 05:00:29 PM 34.2297 -86.1167 157° South 388 447 35,000  Level Atlanta Center
Fri 05:01:29 PM 34.1303 -86.0664 157° South 393 452 35,000  Level Atlanta Center
Fri 05:02:29 PM 34.0308 -86.0164 157° South 393 452 35,000  Level Atlanta Center
Fri 05:03:29 PM 33.9294 -85.9692 159° South 393 452 35,000  Level Atlanta Center
Fri 05:04:29 PM 33.8322 -85.9194 157° South 393 452 35,000  Level Atlanta Center
Fri 05:05:29 PM 33.7325 -85.8747 160° South 388 447 35,000  Level Atlanta Center
Fri 05:06:29 PM 33.6353 -85.8253 157° South 388 447 35,000  Level Atlanta Center
Fri 05:07:29 PM 33.5419 -85.7833 159° South 381 438 35,000  Level Atlanta Center
Fri 05:08:29 PM 33.4444 -85.7367 158° South 374 430 35,000  Level Atlanta Center
Fri 05:09:29 PM 33.3492 -85.6900 158° South 367 422 35,000  Level Atlanta Center
Fri 05:10:29 PM 33.2392 -85.6333 157° South 375 432 35,000  Level Atlanta Center
Fri 05:11:29 PM 33.1439 -85.5844 157° South 375 432 35,000  Level Atlanta Center
Fri 05:12:29 PM 33.0483 -85.5356 157° South 369 425 35,000  Level Atlanta Center
Fri 05:13:29 PM 32.9467 -85.4844 157° South 381 438 35,000  Level Atlanta Center
Fri 05:14:29 PM 32.8594 -85.4458 160° South 375 432 35,000  Level Atlanta Center
Fri 05:15:29 PM 32.7597 -85.3975 158° South 375 432 35,000  Level Atlanta Center
Fri 05:16:29 PM 32.6622 -85.3514 158° South 380 437 35,000  Level Atlanta Center
Fri 05:17:29 PM 32.5686 -85.3081 159° South 372 428 35,000  Level Atlanta Center
Fri 05:18:29 PM 32.4753 -85.2625 158° South 372 428 35,000  Level Atlanta Center
Fri 05:19:29 PM 32.3756 -85.2169 159° South 377 434 35,000  Level Atlanta Center
Fri 05:21:35 PM 32.1761 -85.1236 158° South 371 427 35,000  Level Jacksonville Center
Fri 05:22:35 PM 32.0808 -85.0797 159° South 371 427 35,000  Level Jacksonville Center
Fri 05:23:35 PM 31.9856 -85.0358 159° South 371 427 35,000  Level Jacksonville Center
Fri 05:24:35 PM 31.8903 -84.9894 158° South 371 427 35,000  Level Jacksonville Center
Fri 05:25:35 PM 31.8053 -84.9533 160° South 363 418 35,000  Level Jacksonville Center
Fri 05:26:35 PM 31.7100 -84.9072 158° South 368 423 35,000  Level Jacksonville Center
Fri 05:27:35 PM 31.6189 -84.8639 158° South 368 423 35,000  Level Jacksonville Center
Fri 05:28:35 PM 31.5214 -84.8203 159° South 368 423 35,000  Level Jacksonville Center
Fri 05:29:35 PM 31.4281 -84.7769 158° South 368 423 35,000  Level Jacksonville Center
Fri 05:30:35 PM 31.3369 -84.7314 157° South 368 423 35,000  Level Jacksonville Center
Fri 05:31:35 PM 31.2433 -84.6906 160° South 368 423 35,000  Level Jacksonville Center
Fri 05:32:35 PM 31.1500 -84.6475 158° South 368 423 35,000 -950 Level Jacksonville Center
Fri 05:33:35 PM 31.0506 -84.6022 159° South 368 423 33,100 -1,950 Descending Jacksonville Center
Fri 05:34:35 PM 30.9531 -84.5544 157° South 373 429 31,100 -1,050 Descending Jacksonville Center
Fri 05:35:35 PM 30.8575 -84.5117 159° South 373 429 31,000 -50 Descending Jacksonville Center
Fri 05:36:35 PM 30.7642 -84.4711 160° South 368 423 31,000  Level Jacksonville Center
Fri 05:37:35 PM 30.6686 -84.4261 158° South 368 423 31,000  Level Jacksonville Center
Fri 05:38:35 PM 30.5772 -84.3861 159° South 368 423 31,000  Level Jacksonville Center
Fri 05:39:35 PM 30.4797 -84.3244 151° Southeast 363 418 31,000  Level Jacksonville Center
Fri 05:40:35 PM 30.3886 -84.2653 151° Southeast 363 418 31,000  Level Jacksonville Center
Fri 05:41:35 PM 30.2972 -84.2086 152° Southeast 363 418 31,000  Level Jacksonville Center
Fri 05:42:35 PM 30.2206 -84.1569 150° Southeast 365 420 31,000  Level Jacksonville Center
Fri 05:43:35 PM 30.1294 -84.0958 150° Southeast 371 427 31,000  Level Jacksonville Center
Fri 05:44:35 PM 30.0400 -84.0369 150° Southeast 371 427 31,000  Level Jacksonville Center
Fri 05:45:35 PM 29.9508 -83.9786 150° Southeast 371 427 31,000  Level Jacksonville Center
Fri 05:46:35 PM 29.8614 -83.9225 151° Southeast 371 427 31,000  Level Jacksonville Center
Fri 05:47:35 PM 29.7681 -83.8639 151° Southeast 371 427 31,000  Level Jacksonville Center
Fri 05:48:35 PM 29.6786 -83.8058 151° Southeast 371 427 31,000  Level Jacksonville Center
Fri 05:49:35 PM 29.5894 -83.7453 149° Southeast 371 427 31,000  Level Jacksonville Center
Fri 05:50:35 PM 29.4978 -83.6872 151° Southeast 371 427 31,000 -750 Level Jacksonville Center
Fri 05:51:35 PM 29.4064 -83.6292 151° Southeast 371 427 29,500 -1,750 Descending Jacksonville Center
Fri 05:52:35 PM 29.3128 -83.5714 152° Southeast 376 433 27,500 -2,000 Descending Jacksonville Center
Fri 05:53:35 PM 29.2233 -83.5136 151° Southeast 370 426 25,500 -1,750 Descending Jacksonville Center
Fri 05:54:35 PM 29.1339 -83.4561 151° Southeast 370 426 24,000 -750 Descending Jacksonville Center
Fri 05:55:35 PM 29.0442 -83.3983 151° Southeast 370 426 24,000 -850 Level Jacksonville Center
Fri 05:56:35 PM 28.9547 -83.3411 151° Southeast 370 426 22,300 -1,850 Descending Jacksonville Center
Fri 05:57:35 PM 28.8650 -83.2861 152° Southeast 370 426 20,300 -2,039 Descending Jacksonville Center
Fri 06:00:01 PM 28.6667 -83.1500 149° Southeast 323 372 15,300 -1,893 Descending Tampa TRACON
Fri 06:01:01 PM 28.5833 -83.1000 152° Southeast 319 367 13,800 -1,684 Descending Tampa TRACON
Fri 06:01:55 PM 28.5167 -83.0667 156° South 322 371 12,100 -1,952 Descending Tampa TRACON
Fri 06:03:07 PM 28.4167 -83.0000 150° Southeast 307 353 9,700 -1,983 Descending Tampa TRACON
Fri 06:03:56 PM 28.3667 -82.9833 164° South 294 338 8,100 -1,982 Descending Tampa TRACON
Fri 06:04:56 PM 28.2833 -82.9500 161° South 272 313 6,100 -1,000 Descending Tampa TRACON
Fri 06:05:56 PM 28.2167 -82.9167 156° South 271 312 6,100  Level Tampa TRACON
Fri 06:07:02 PM 28.1333 -82.9000 170° South 265 305 6,100 -619 Level Tampa TRACON
Fri 06:08:02 PM 28.0667 -82.8667 156° South 259 298 4,800 -1,053 Descending Tampa TRACON
Fri 06:08:56 PM 28.0167 -82.8500 164° South 244 281 4,100 -690 Descending Tampa TRACON
Fri 06:09:55 PM 27.9500 -82.8333 168° South 234 269 3,500 -700 Descending Tampa TRACON
Fri 06:10:56 PM 27.8833 -82.8000 156° South 235 270 2,700 -545 Descending Tampa TRACON
Fri 06:11:56 PM 27.8333 -82.7667 149° Southeast 224 258 2,400 -316 Descending Tampa TRACON
Fri 06:12:50 PM 27.8167 -82.7000 106° East 201 231 2,100 -556 Descending Tampa TRACON
Fri 06:13:44 PM 27.8500 -82.6833 24° Northeast 139 160 1,400 -810 Descending Tampa TRACON
Fri 06:14:56 PM 27.8833 -82.6833 360° North 110 127 400 -833 Descending Tampa TRACON
Fri 06:16:00 PM 27.9000 -82.6833 North  Level FlightAware Approximate
Fri 06:23:00 PM 27.9100 -82.6875 North  Level Estimated
Fri 06:24:00 PM 27.9100 -82.6875 North  Level Estimated

Login

Don't have an account? Register now (free) for customized features, flight alerts, and more!